Zuidhorn, Netherlands
Current Conditions -  °F | °C
As of 4:25 AM on Sunday 25 Jan 2015 (Local Time) from EHGG Reporting Station
Few Clouds Few Clouds  
Wind Chill: 29°   Ceiling: Unl
Heat Index: 36°   Visibility: 6mi
Dew Point: 34°   Wind: 8mph
Humidity: 93%   Direction: 260°W
Pressure: 30.27"   Gusts: NA
Location:  53.25°N, 6.4°E
Report Text: EHGG 250325Z AUTO 26007KT 9999 FEW021 02/01 Q1025
Loading
Personal Weather Stations






























Interactive Weather Map New forecast layout! Learn more

10-Day Weather Forecast

Advertisements
Track Severe Weather on mobile